Terminal Aerodrome Forecast
Issued by NWS Goodland, KS

Home | Current Version | Previous Version | Text Only | Print | Product List | Glossary On
Versions: 1 2 3 4 5 6 7 8 9 10 11 12 13 14 15 16 17 18 19
662
FTUS43 KGLD 181136
TAFGLD
TAF
KGLD 181136Z 1812/1912 23006KT 6SM BR FEW010 SCT150
     FM181500 25006KT P6SM SCT150
     FM181800 VRB05KT P6SM SKC
     FM182100 20007KT P6SM SKC
     FM190800 24006KT P6SM FEW015=

USA.gov is the U.S. government's official web portal to all federal, state and local government web resources and services.